sensor_id;sensor_type;location;lat;lon;timestamp;P1;durP1;ratioP1;P2;durP2;ratioP2
6679;SDS011;3376;42.664;23.346;2023-12-14T00:00:12;16.60;;;14.77;;
6679;SDS011;3376;42.664;23.346;2023-12-14T00:02:40;17.50;;;14.50;;
6679;SDS011;3376;42.664;23.346;2023-12-14T00:05:07;14.53;;;13.07;;
6679;SDS011;3376;42.664;23.346;2023-12-14T00:07:36;16.10;;;13.70;;
6679;SDS011;3376;42.664;23.346;2023-12-14T00:10:03;15.80;;;13.50;;
6679;SDS011;3376;42.664;23.346;2023-12-14T00:12:31;14.33;;;12.63;;
6679;SDS011;3376;42.664;23.346;2023-12-14T00:14:58;14.93;;;13.33;;
6679;SDS011;3376;42.664;23.346;2023-12-14T00:17:25;15.17;;;12.87;;
6679;SDS011;3376;42.664;23.346;2023-12-14T00:19:52;15.07;;;11.80;;
6679;SDS011;3376;42.664;23.346;2023-12-14T00:22:19;14.47;;;10.40;;
6679;SDS011;3376;42.664;23.346;2023-12-14T00:24:47;16.50;;;12.23;;
6679;SDS011;3376;42.664;23.346;2023-12-14T00:27:14;12.80;;;11.63;;
6679;SDS011;3376;42.664;23.346;2023-12-14T00:29:41;13.87;;;12.47;;
6679;SDS011;3376;42.664;23.346;2023-12-14T00:32:08;14.00;;;11.10;;
6679;SDS011;3376;42.664;23.346;2023-12-14T00:34:35;12.80;;;11.30;;
6679;SDS011;3376;42.664;23.346;2023-12-14T00:37:02;12.93;;;11.63;;
6679;SDS011;3376;42.664;23.346;2023-12-14T00:39:29;13.00;;;11.70;;
6679;SDS011;3376;42.664;23.346;2023-12-14T00:41:57;15.87;;;12.33;;
6679;SDS011;3376;42.664;23.346;2023-12-14T00:44:24;14.17;;;12.67;;
6679;SDS011;3376;42.664;23.346;2023-12-14T00:46:51;13.27;;;12.07;;
6679;SDS011;3376;42.664;23.346;2023-12-14T00:49:18;15.07;;;12.30;;
6679;SDS011;3376;42.664;23.346;2023-12-14T00:51:45;14.63;;;13.10;;
6679;SDS011;3376;42.664;23.346;2023-12-14T00:54:12;13.87;;;12.50;;
6679;SDS011;3376;42.664;23.346;2023-12-14T00:56:39;15.33;;;12.23;;
6679;SDS011;3376;42.664;23.346;2023-12-14T00:59:07;17.13;;;12.37;;
6679;SDS011;3376;42.664;23.346;2023-12-14T01:01:34;13.33;;;11.93;;
6679;SDS011;3376;42.664;23.346;2023-12-14T01:04:01;13.53;;;12.13;;
6679;SDS011;3376;42.664;23.346;2023-12-14T01:06:29;15.67;;;13.70;;
6679;SDS011;3376;42.664;23.346;2023-12-14T01:08:55;15.37;;;12.47;;
6679;SDS011;3376;42.664;23.346;2023-12-14T01:11:22;14.53;;;12.77;;
6679;SDS011;3376;42.664;23.346;2023-12-14T01:13:49;18.77;;;13.40;;
6679;SDS011;3376;42.664;23.346;2023-12-14T01:16:17;13.53;;;12.20;;
6679;SDS011;3376;42.664;23.346;2023-12-14T01:18:44;12.83;;;11.10;;
6679;SDS011;3376;42.664;23.346;2023-12-14T01:21:11;16.03;;;12.57;;
6679;SDS011;3376;42.664;23.346;2023-12-14T01:23:38;15.97;;;12.20;;
6679;SDS011;3376;42.664;23.346;2023-12-14T01:26:05;16.63;;;10.93;;
6679;SDS011;3376;42.664;23.346;2023-12-14T01:28:32;13.80;;;12.37;;
6679;SDS011;3376;42.664;23.346;2023-12-14T01:30:59;13.13;;;11.70;;
6679;SDS011;3376;42.664;23.346;2023-12-14T01:33:28;13.60;;;12.20;;
6679;SDS011;3376;42.664;23.346;2023-12-14T01:35:55;12.33;;;11.13;;
6679;SDS011;3376;42.664;23.346;2023-12-14T01:38:21;15.53;;;13.00;;
6679;SDS011;3376;42.664;23.346;2023-12-14T01:40:48;12.97;;;11.67;;
6679;SDS011;3376;42.664;23.346;2023-12-14T01:43:16;14.30;;;12.67;;
6679;SDS011;3376;42.664;23.346;2023-12-14T01:45:43;14.03;;;12.07;;
6679;SDS011;3376;42.664;23.346;2023-12-14T01:48:10;13.03;;;11.70;;
6679;SDS011;3376;42.664;23.346;2023-12-14T01:50:38;14.93;;;13.03;;
6679;SDS011;3376;42.664;23.346;2023-12-14T01:53:05;13.17;;;11.93;;
6679;SDS011;3376;42.664;23.346;2023-12-14T01:55:32;16.13;;;14.50;;
6679;SDS011;3376;42.664;23.346;2023-12-14T01:57:59;15.00;;;13.23;;
6679;SDS011;3376;42.664;23.346;2023-12-14T02:00:30;12.57;;;11.30;;
6679;SDS011;3376;42.664;23.346;2023-12-14T02:03:03;13.93;;;12.53;;
6679;SDS011;3376;42.664;23.346;2023-12-14T02:05:30;13.43;;;12.03;;
6679;SDS011;3376;42.664;23.346;2023-12-14T02:07:58;15.17;;;12.70;;
6679;SDS011;3376;42.664;23.346;2023-12-14T02:10:25;14.00;;;12.50;;
6679;SDS011;3376;42.664;23.346;2023-12-14T02:12:52;14.20;;;12.70;;
6679;SDS011;3376;42.664;23.346;2023-12-14T02:15:19;14.00;;;12.63;;
6679;SDS011;3376;42.664;23.346;2023-12-14T02:17:46;19.23;;;12.40;;
6679;SDS011;3376;42.664;23.346;2023-12-14T02:20:13;13.80;;;11.80;;
6679;SDS011;3376;42.664;23.346;2023-12-14T02:22:51;14.03;;;12.57;;
6679;SDS011;3376;42.664;23.346;2023-12-14T02:25:20;13.17;;;11.87;;
6679;SDS011;3376;42.664;23.346;2023-12-14T02:27:47;15.00;;;12.20;;
6679;SDS011;3376;42.664;23.346;2023-12-14T02:30:15;13.53;;;12.23;;
6679;SDS011;3376;42.664;23.346;2023-12-14T02:32:43;14.30;;;11.77;;
6679;SDS011;3376;42.664;23.346;2023-12-14T02:35:10;12.17;;;11.10;;
6679;SDS011;3376;42.664;23.346;2023-12-14T02:37:37;13.60;;;12.20;;
6679;SDS011;3376;42.664;23.346;2023-12-14T02:40:07;14.73;;;11.70;;
6679;SDS011;3376;42.664;23.346;2023-12-14T02:42:35;12.63;;;11.43;;
6679;SDS011;3376;42.664;23.346;2023-12-14T02:45:02;13.67;;;12.17;;
6679;SDS011;3376;42.664;23.346;2023-12-14T02:47:30;10.47;;;9.67;;
6679;SDS011;3376;42.664;23.346;2023-12-14T02:49:57;14.27;;;11.73;;
6679;SDS011;3376;42.664;23.346;2023-12-14T02:52:24;11.87;;;10.70;;
6679;SDS011;3376;42.664;23.346;2023-12-14T02:54:51;11.87;;;10.77;;
6679;SDS011;3376;42.664;23.346;2023-12-14T02:57:19;11.40;;;10.43;;
6679;SDS011;3376;42.664;23.346;2023-12-14T02:59:46;11.53;;;10.37;;
6679;SDS011;3376;42.664;23.346;2023-12-14T03:02:13;11.57;;;9.77;;
6679;SDS011;3376;42.664;23.346;2023-12-14T03:04:40;11.97;;;10.80;;
6679;SDS011;3376;42.664;23.346;2023-12-14T03:07:07;12.07;;;10.83;;
6679;SDS011;3376;42.664;23.346;2023-12-14T03:09:34;12.47;;;11.00;;
6679;SDS011;3376;42.664;23.346;2023-12-14T03:12:01;14.30;;;11.47;;
6679;SDS011;3376;42.664;23.346;2023-12-14T03:14:31;11.13;;;10.13;;
6679;SDS011;3376;42.664;23.346;2023-12-14T03:16:59;11.67;;;10.40;;
6679;SDS011;3376;42.664;23.346;2023-12-14T03:19:27;13.27;;;10.93;;
6679;SDS011;3376;42.664;23.346;2023-12-14T03:21:54;10.17;;;9.27;;
6679;SDS011;3376;42.664;23.346;2023-12-14T03:24:21;10.87;;;9.83;;
6679;SDS011;3376;42.664;23.346;2023-12-14T03:26:48;11.67;;;10.53;;
6679;SDS011;3376;42.664;23.346;2023-12-14T03:29:16;11.17;;;10.07;;
6679;SDS011;3376;42.664;23.346;2023-12-14T03:31:44;10.60;;;9.67;;
6679;SDS011;3376;42.664;23.346;2023-12-14T03:34:11;9.90;;;9.00;;
6679;SDS011;3376;42.664;23.346;2023-12-14T03:36:39;9.93;;;8.93;;
6679;SDS011;3376;42.664;23.346;2023-12-14T03:39:06;10.30;;;9.43;;
6679;SDS011;3376;42.664;23.346;2023-12-14T03:41:33;10.00;;;9.00;;
6679;SDS011;3376;42.664;23.346;2023-12-14T03:43:59;9.93;;;8.93;;
6679;SDS011;3376;42.664;23.346;2023-12-14T03:46:26;10.40;;;9.40;;
6679;SDS011;3376;42.664;23.346;2023-12-14T03:48:55;10.60;;;9.17;;
6679;SDS011;3376;42.664;23.346;2023-12-14T03:51:22;8.60;;;7.90;;
6679;SDS011;3376;42.664;23.346;2023-12-14T03:53:49;9.90;;;9.10;;
6679;SDS011;3376;42.664;23.346;2023-12-14T03:56:16;10.17;;;9.10;;
6679;SDS011;3376;42.664;23.346;2023-12-14T03:58:43;9.17;;;8.57;;
6679;SDS011;3376;42.664;23.346;2023-12-14T04:01:15;10.30;;;9.43;;
6679;SDS011;3376;42.664;23.346;2023-12-14T04:03:43;9.10;;;8.43;;
6679;SDS011;3376;42.664;23.346;2023-12-14T04:06:12;11.73;;;9.13;;
6679;SDS011;3376;42.664;23.346;2023-12-14T04:08:39;9.13;;;8.43;;
6679;SDS011;3376;42.664;23.346;2023-12-14T04:11:23;10.30;;;9.40;;
6679;SDS011;3376;42.664;23.346;2023-12-14T04:13:50;9.53;;;8.60;;
6679;SDS011;3376;42.664;23.346;2023-12-14T04:16:19;8.67;;;8.07;;
6679;SDS011;3376;42.664;23.346;2023-12-14T04:18:46;12.60;;;10.83;;
6679;SDS011;3376;42.664;23.346;2023-12-14T04:21:14;8.43;;;7.57;;
6679;SDS011;3376;42.664;23.346;2023-12-14T04:23:41;10.33;;;9.30;;
6679;SDS011;3376;42.664;23.346;2023-12-14T04:26:10;12.40;;;9.10;;
6679;SDS011;3376;42.664;23.346;2023-12-14T04:28:38;10.87;;;9.77;;
6679;SDS011;3376;42.664;23.346;2023-12-14T04:31:06;9.10;;;8.40;;
6679;SDS011;3376;42.664;23.346;2023-12-14T04:33:32;9.80;;;8.80;;
6679;SDS011;3376;42.664;23.346;2023-12-14T04:38:46;9.70;;;8.80;;
6679;SDS011;3376;42.664;23.346;2023-12-14T04:41:13;7.80;;;7.10;;
6679;SDS011;3376;42.664;23.346;2023-12-14T04:43:40;9.00;;;8.20;;
6679;SDS011;3376;42.664;23.346;2023-12-14T04:46:07;10.33;;;9.13;;
6679;SDS011;3376;42.664;23.346;2023-12-14T04:48:34;8.80;;;8.07;;
6679;SDS011;3376;42.664;23.346;2023-12-14T04:51:02;9.43;;;8.47;;
6679;SDS011;3376;42.664;23.346;2023-12-14T04:53:31;9.90;;;8.73;;
6679;SDS011;3376;42.664;23.346;2023-12-14T04:55:58;9.00;;;8.30;;
6679;SDS011;3376;42.664;23.346;2023-12-14T04:58:25;11.20;;;7.50;;
6679;SDS011;3376;42.664;23.346;2023-12-14T05:00:52;8.63;;;7.83;;
6679;SDS011;3376;42.664;23.346;2023-12-14T05:03:19;7.50;;;7.10;;
6679;SDS011;3376;42.664;23.346;2023-12-14T05:05:46;11.10;;;10.03;;
6679;SDS011;3376;42.664;23.346;2023-12-14T05:08:14;9.03;;;8.13;;
6679;SDS011;3376;42.664;23.346;2023-12-14T05:10:42;9.07;;;8.27;;
6679;SDS011;3376;42.664;23.346;2023-12-14T05:13:09;6.97;;;6.53;;
6679;SDS011;3376;42.664;23.346;2023-12-14T05:15:36;10.07;;;9.20;;
6679;SDS011;3376;42.664;23.346;2023-12-14T05:18:03;11.23;;;9.87;;
6679;SDS011;3376;42.664;23.346;2023-12-14T05:20:30;10.67;;;9.67;;
6679;SDS011;3376;42.664;23.346;2023-12-14T05:22:57;12.13;;;9.80;;
6679;SDS011;3376;42.664;23.346;2023-12-14T05:25:24;12.37;;;9.90;;
6679;SDS011;3376;42.664;23.346;2023-12-14T05:27:53;12.97;;;11.27;;
6679;SDS011;3376;42.664;23.346;2023-12-14T05:30:20;14.47;;;10.93;;
6679;SDS011;3376;42.664;23.346;2023-12-14T05:32:47;10.07;;;9.03;;
6679;SDS011;3376;42.664;23.346;2023-12-14T05:35:14;9.70;;;8.77;;
6679;SDS011;3376;42.664;23.346;2023-12-14T05:37:41;10.43;;;9.43;;
6679;SDS011;3376;42.664;23.346;2023-12-14T05:40:09;10.40;;;9.40;;
6679;SDS011;3376;42.664;23.346;2023-12-14T05:42:36;9.63;;;8.93;;
6679;SDS011;3376;42.664;23.346;2023-12-14T05:45:05;9.60;;;8.63;;
6679;SDS011;3376;42.664;23.346;2023-12-14T05:47:33;8.40;;;7.70;;
6679;SDS011;3376;42.664;23.346;2023-12-14T05:50:00;9.83;;;9.03;;
6679;SDS011;3376;42.664;23.346;2023-12-14T05:52:27;9.70;;;9.03;;
6679;SDS011;3376;42.664;23.346;2023-12-14T05:54:54;8.97;;;8.10;;
6679;SDS011;3376;42.664;23.346;2023-12-14T05:57:21;8.53;;;7.87;;
6679;SDS011;3376;42.664;23.346;2023-12-14T05:59:50;9.00;;;8.30;;
6679;SDS011;3376;42.664;23.346;2023-12-14T06:02:18;9.93;;;9.03;;
6679;SDS011;3376;42.664;23.346;2023-12-14T06:04:45;9.47;;;8.67;;
6679;SDS011;3376;42.664;23.346;2023-12-14T06:07:13;9.00;;;8.23;;
6679;SDS011;3376;42.664;23.346;2023-12-14T06:09:41;8.83;;;8.13;;
6679;SDS011;3376;42.664;23.346;2023-12-14T06:12:08;13.80;;;8.70;;
6679;SDS011;3376;42.664;23.346;2023-12-14T06:14:35;8.50;;;7.90;;
6679;SDS011;3376;42.664;23.346;2023-12-14T06:17:02;7.50;;;7.00;;
6679;SDS011;3376;42.664;23.346;2023-12-14T06:19:30;8.17;;;7.33;;
6679;SDS011;3376;42.664;23.346;2023-12-14T06:21:57;9.37;;;8.67;;
6679;SDS011;3376;42.664;23.346;2023-12-14T06:24:24;9.10;;;8.50;;
6679;SDS011;3376;42.664;23.346;2023-12-14T06:26:51;9.47;;;8.50;;
6679;SDS011;3376;42.664;23.346;2023-12-14T06:29:18;8.97;;;8.27;;
6679;SDS011;3376;42.664;23.346;2023-12-14T06:31:45;12.07;;;9.27;;
6679;SDS011;3376;42.664;23.346;2023-12-14T06:34:12;9.27;;;8.43;;
6679;SDS011;3376;42.664;23.346;2023-12-14T06:36:42;10.60;;;9.43;;
6679;SDS011;3376;42.664;23.346;2023-12-14T06:39:10;9.80;;;8.90;;
6679;SDS011;3376;42.664;23.346;2023-12-14T06:41:37;10.13;;;9.13;;
6679;SDS011;3376;42.664;23.346;2023-12-14T06:44:04;9.23;;;8.40;;
6679;SDS011;3376;42.664;23.346;2023-12-14T06:46:31;9.47;;;8.67;;
6679;SDS011;3376;42.664;23.346;2023-12-14T06:48:58;9.80;;;8.83;;
6679;SDS011;3376;42.664;23.346;2023-12-14T06:51:25;8.20;;;7.67;;
6679;SDS011;3376;42.664;23.346;2023-12-14T06:53:53;8.77;;;8.07;;
6679;SDS011;3376;42.664;23.346;2023-12-14T06:56:20;10.33;;;9.27;;
6679;SDS011;3376;42.664;23.346;2023-12-14T06:58:47;10.47;;;9.10;;
6679;SDS011;3376;42.664;23.346;2023-12-14T07:01:15;10.50;;;9.43;;
6679;SDS011;3376;42.664;23.346;2023-12-14T07:03:43;9.00;;;8.40;;
6679;SDS011;3376;42.664;23.346;2023-12-14T07:06:11;8.90;;;8.20;;
6679;SDS011;3376;42.664;23.346;2023-12-14T07:08:39;9.03;;;8.13;;
6679;SDS011;3376;42.664;23.346;2023-12-14T07:11:08;12.73;;;9.23;;
6679;SDS011;3376;42.664;23.346;2023-12-14T07:13:35;10.30;;;9.40;;
6679;SDS011;3376;42.664;23.346;2023-12-14T07:16:03;11.47;;;8.07;;
6679;SDS011;3376;42.664;23.346;2023-12-14T07:18:33;10.37;;;9.20;;
6679;SDS011;3376;42.664;23.346;2023-12-14T07:21:00;9.83;;;8.77;;
6679;SDS011;3376;42.664;23.346;2023-12-14T07:23:27;10.33;;;9.07;;
6679;SDS011;3376;42.664;23.346;2023-12-14T07:25:54;12.07;;;8.83;;
6679;SDS011;3376;42.664;23.346;2023-12-14T07:28:23;10.00;;;9.10;;
6679;SDS011;3376;42.664;23.346;2023-12-14T07:30:50;13.27;;;8.77;;
6679;SDS011;3376;42.664;23.346;2023-12-14T07:33:17;8.73;;;8.10;;
6679;SDS011;3376;42.664;23.346;2023-12-14T07:35:44;9.37;;;8.67;;
6679;SDS011;3376;42.664;23.346;2023-12-14T07:38:11;8.90;;;8.30;;
6679;SDS011;3376;42.664;23.346;2023-12-14T07:40:38;9.70;;;8.77;;
6679;SDS011;3376;42.664;23.346;2023-12-14T07:43:05;9.67;;;8.77;;
6679;SDS011;3376;42.664;23.346;2023-12-14T07:45:34;12.07;;;9.67;;
6679;SDS011;3376;42.664;23.346;2023-12-14T07:48:01;10.43;;;9.37;;
6679;SDS011;3376;42.664;23.346;2023-12-14T07:50:30;9.57;;;8.57;;
6679;SDS011;3376;42.664;23.346;2023-12-14T07:52:57;12.43;;;9.03;;
6679;SDS011;3376;42.664;23.346;2023-12-14T07:55:24;9.77;;;8.87;;
6679;SDS011;3376;42.664;23.346;2023-12-14T07:57:51;12.87;;;9.10;;
6679;SDS011;3376;42.664;23.346;2023-12-14T08:00:18;10.40;;;9.13;;
6679;SDS011;3376;42.664;23.346;2023-12-14T08:02:46;12.83;;;8.57;;
6679;SDS011;3376;42.664;23.346;2023-12-14T08:05:13;8.67;;;7.80;;
6679;SDS011;3376;42.664;23.346;2023-12-14T08:07:40;11.37;;;8.70;;
6679;SDS011;3376;42.664;23.346;2023-12-14T08:10:07;7.20;;;6.80;;
6679;SDS011;3376;42.664;23.346;2023-12-14T08:12:34;7.33;;;6.83;;
6679;SDS011;3376;42.664;23.346;2023-12-14T08:15:01;9.27;;;6.40;;
6679;SDS011;3376;42.664;23.346;2023-12-14T08:17:28;6.53;;;5.93;;
6679;SDS011;3376;42.664;23.346;2023-12-14T08:19:57;7.70;;;6.83;;
6679;SDS011;3376;42.664;23.346;2023-12-14T08:22:24;6.97;;;6.57;;
6679;SDS011;3376;42.664;23.346;2023-12-14T08:24:50;7.83;;;6.13;;
6679;SDS011;3376;42.664;23.346;2023-12-14T08:27:17;9.13;;;6.73;;
6679;SDS011;3376;42.664;23.346;2023-12-14T08:29:44;8.70;;;7.97;;
6679;SDS011;3376;42.664;23.346;2023-12-14T08:32:11;6.90;;;6.50;;
6679;SDS011;3376;42.664;23.346;2023-12-14T08:34:39;7.03;;;6.53;;
6679;SDS011;3376;42.664;23.346;2023-12-14T08:37:08;6.10;;;5.77;;
6679;SDS011;3376;42.664;23.346;2023-12-14T08:39:35;8.03;;;6.43;;
6679;SDS011;3376;42.664;23.346;2023-12-14T08:42:02;7.33;;;6.83;;
6679;SDS011;3376;42.664;23.346;2023-12-14T08:44:29;6.87;;;6.27;;
6679;SDS011;3376;42.664;23.346;2023-12-14T08:46:56;16.53;;;10.00;;
6679;SDS011;3376;42.664;23.346;2023-12-14T08:49:23;11.73;;;9.93;;
6679;SDS011;3376;42.664;23.346;2023-12-14T08:51:50;9.30;;;8.60;;
6679;SDS011;3376;42.664;23.346;2023-12-14T08:54:19;12.73;;;8.43;;
6679;SDS011;3376;42.664;23.346;2023-12-14T08:56:46;6.83;;;6.47;;
6679;SDS011;3376;42.664;23.346;2023-12-14T08:59:13;7.70;;;6.87;;
6679;SDS011;3376;42.664;23.346;2023-12-14T09:01:40;8.67;;;7.83;;
6679;SDS011;3376;42.664;23.346;2023-12-14T09:04:07;7.57;;;6.87;;
6679;SDS011;3376;42.664;23.346;2023-12-14T09:06:34;7.97;;;7.07;;
6679;SDS011;3376;42.664;23.346;2023-12-14T09:09:01;6.40;;;5.97;;
6679;SDS011;3376;42.664;23.346;2023-12-14T09:11:29;6.97;;;6.47;;
6679;SDS011;3376;42.664;23.346;2023-12-14T09:13:56;10.13;;;6.87;;
6679;SDS011;3376;42.664;23.346;2023-12-14T09:16:23;14.60;;;8.23;;
6679;SDS011;3376;42.664;23.346;2023-12-14T09:18:50;7.37;;;6.23;;
6679;SDS011;3376;42.664;23.346;2023-12-14T09:21:17;10.33;;;6.50;;
6679;SDS011;3376;42.664;23.346;2023-12-14T09:23:44;6.97;;;6.47;;
6679;SDS011;3376;42.664;23.346;2023-12-14T09:26:11;21.57;;;15.63;;
6679;SDS011;3376;42.664;23.346;2023-12-14T09:28:40;12.27;;;11.13;;
6679;SDS011;3376;42.664;23.346;2023-12-14T09:31:07;20.07;;;17.07;;
6679;SDS011;3376;42.664;23.346;2023-12-14T09:33:34;11.37;;;10.30;;
6679;SDS011;3376;42.664;23.346;2023-12-14T09:36:01;17.73;;;11.00;;
6679;SDS011;3376;42.664;23.346;2023-12-14T09:38:29;7.47;;;6.23;;
6679;SDS011;3376;42.664;23.346;2023-12-14T09:40:56;6.37;;;5.97;;
6679;SDS011;3376;42.664;23.346;2023-12-14T09:43:23;7.57;;;6.87;;
6679;SDS011;3376;42.664;23.346;2023-12-14T09:45:51;8.17;;;6.93;;
6679;SDS011;3376;42.664;23.346;2023-12-14T09:48:19;6.27;;;5.70;;
6679;SDS011;3376;42.664;23.346;2023-12-14T09:50:46;7.03;;;5.90;;
6679;SDS011;3376;42.664;23.346;2023-12-14T09:53:15;10.60;;;8.87;;
6679;SDS011;3376;42.664;23.346;2023-12-14T09:55:43;10.43;;;9.43;;
6679;SDS011;3376;42.664;23.346;2023-12-14T09:58:10;6.40;;;6.00;;
6679;SDS011;3376;42.664;23.346;2023-12-14T10:00:38;6.33;;;5.93;;
6679;SDS011;3376;42.664;23.346;2023-12-14T10:03:20;10.33;;;6.20;;
6679;SDS011;3376;42.664;23.346;2023-12-14T10:05:48;7.00;;;6.30;;
6679;SDS011;3376;42.664;23.346;2023-12-14T10:08:15;8.40;;;7.70;;
6679;SDS011;3376;42.664;23.346;2023-12-14T10:10:43;6.80;;;6.17;;
6679;SDS011;3376;42.664;23.346;2023-12-14T10:13:10;9.93;;;6.27;;
6679;SDS011;3376;42.664;23.346;2023-12-14T10:15:40;6.13;;;5.57;;
6679;SDS011;3376;42.664;23.346;2023-12-14T10:18:08;7.50;;;6.37;;
6679;SDS011;3376;42.664;23.346;2023-12-14T10:20:36;8.60;;;5.57;;
6679;SDS011;3376;42.664;23.346;2023-12-14T10:23:04;11.57;;;8.73;;
6679;SDS011;3376;42.664;23.346;2023-12-14T10:25:32;12.00;;;9.30;;
6679;SDS011;3376;42.664;23.346;2023-12-14T10:27:59;6.33;;;5.83;;
6679;SDS011;3376;42.664;23.346;2023-12-14T10:30:27;10.57;;;5.47;;
6679;SDS011;3376;42.664;23.346;2023-12-14T10:32:55;6.23;;;5.77;;
6679;SDS011;3376;42.664;23.346;2023-12-14T10:35:22;7.17;;;5.70;;
6679;SDS011;3376;42.664;23.346;2023-12-14T10:37:51;11.30;;;6.07;;
6679;SDS011;3376;42.664;23.346;2023-12-14T10:40:19;10.63;;;6.20;;
6679;SDS011;3376;42.664;23.346;2023-12-14T10:42:46;14.07;;;8.20;;
6679;SDS011;3376;42.664;23.346;2023-12-14T10:45:15;9.00;;;7.40;;
6679;SDS011;3376;42.664;23.346;2023-12-14T10:47:44;9.73;;;7.07;;
6679;SDS011;3376;42.664;23.346;2023-12-14T10:50:11;7.97;;;7.27;;
6679;SDS011;3376;42.664;23.346;2023-12-14T10:52:38;22.07;;;8.00;;
6679;SDS011;3376;42.664;23.346;2023-12-14T10:55:09;23.70;;;8.33;;
6679;SDS011;3376;42.664;23.346;2023-12-14T10:57:41;11.57;;;8.40;;
6679;SDS011;3376;42.664;23.346;2023-12-14T11:00:09;9.43;;;8.33;;
6679;SDS011;3376;42.664;23.346;2023-12-14T11:02:38;9.50;;;8.80;;
6679;SDS011;3376;42.664;23.346;2023-12-14T11:05:08;7.57;;;6.97;;
6679;SDS011;3376;42.664;23.346;2023-12-14T11:07:47;7.70;;;7.30;;
6679;SDS011;3376;42.664;23.346;2023-12-14T11:10:22;7.10;;;6.60;;
6679;SDS011;3376;42.664;23.346;2023-12-14T11:12:56;11.20;;;6.10;;
6679;SDS011;3376;42.664;23.346;2023-12-14T11:15:27;6.03;;;5.53;;
6679;SDS011;3376;42.664;23.346;2023-12-14T11:20:51;4.30;;;3.90;;
6679;SDS011;3376;42.664;23.346;2023-12-14T11:23:27;5.13;;;3.80;;
6679;SDS011;3376;42.664;23.346;2023-12-14T11:25:58;3.87;;;3.67;;
6679;SDS011;3376;42.664;23.346;2023-12-14T11:28:28;3.37;;;3.17;;
6679;SDS011;3376;42.664;23.346;2023-12-14T11:30:56;3.07;;;2.37;;
6679;SDS011;3376;42.664;23.346;2023-12-14T11:33:23;2.43;;;2.33;;
6679;SDS011;3376;42.664;23.346;2023-12-14T11:35:51;3.10;;;2.30;;
6679;SDS011;3376;42.664;23.346;2023-12-14T11:38:18;2.90;;;2.50;;
6679;SDS011;3376;42.664;23.346;2023-12-14T11:40:46;3.63;;;1.90;;
6679;SDS011;3376;42.664;23.346;2023-12-14T11:43:15;1.57;;;1.47;;
6679;SDS011;3376;42.664;23.346;2023-12-14T11:45:45;2.13;;;1.97;;
6679;SDS011;3376;42.664;23.346;2023-12-14T11:48:12;1.70;;;1.60;;
6679;SDS011;3376;42.664;23.346;2023-12-14T11:50:40;4.33;;;1.50;;
6679;SDS011;3376;42.664;23.346;2023-12-14T11:53:09;3.30;;;1.67;;
6679;SDS011;3376;42.664;23.346;2023-12-14T11:55:37;1.90;;;1.20;;
6679;SDS011;3376;42.664;23.346;2023-12-14T11:58:06;1.23;;;1.13;;
6679;SDS011;3376;42.664;23.346;2023-12-14T12:00:34;1.03;;;1.03;;
6679;SDS011;3376;42.664;23.346;2023-12-14T12:03:08;1.70;;;0.90;;
6679;SDS011;3376;42.664;23.346;2023-12-14T12:05:39;0.90;;;0.90;;
6679;SDS011;3376;42.664;23.346;2023-12-14T12:08:08;1.13;;;1.10;;
6679;SDS011;3376;42.664;23.346;2023-12-14T12:10:36;2.17;;;1.13;;
6679;SDS011;3376;42.664;23.346;2023-12-14T12:13:04;1.80;;;0.87;;
6679;SDS011;3376;42.664;23.346;2023-12-14T12:15:31;1.87;;;0.70;;
6679;SDS011;3376;42.664;23.346;2023-12-14T12:18:02;1.03;;;0.80;;
6679;SDS011;3376;42.664;23.346;2023-12-14T12:20:30;0.80;;;0.77;;
6679;SDS011;3376;42.664;23.346;2023-12-14T12:22:57;0.60;;;0.60;;
6679;SDS011;3376;42.664;23.346;2023-12-14T12:25:24;2.90;;;0.90;;
6679;SDS011;3376;42.664;23.346;2023-12-14T12:27:52;0.60;;;0.60;;
6679;SDS011;3376;42.664;23.346;2023-12-14T12:30:20;1.63;;;0.67;;
6679;SDS011;3376;42.664;23.346;2023-12-14T12:32:47;3.23;;;0.73;;
6679;SDS011;3376;42.664;23.346;2023-12-14T12:35:17;0.40;;;0.40;;
6679;SDS011;3376;42.664;23.346;2023-12-14T12:37:44;0.40;;;0.40;;
6679;SDS011;3376;42.664;23.346;2023-12-14T12:40:11;0.43;;;0.43;;
6679;SDS011;3376;42.664;23.346;2023-12-14T12:42:41;0.53;;;0.53;;
6679;SDS011;3376;42.664;23.346;2023-12-14T12:45:08;1.50;;;0.40;;
6679;SDS011;3376;42.664;23.346;2023-12-14T12:47:37;0.47;;;0.33;;
6679;SDS011;3376;42.664;23.346;2023-12-14T12:50:04;0.97;;;0.70;;
6679;SDS011;3376;42.664;23.346;2023-12-14T12:52:33;1.17;;;0.60;;
6679;SDS011;3376;42.664;23.346;2023-12-14T12:55:00;0.40;;;0.40;;
6679;SDS011;3376;42.664;23.346;2023-12-14T12:57:27;0.97;;;0.40;;
6679;SDS011;3376;42.664;23.346;2023-12-14T12:59:54;2.30;;;0.63;;
6679;SDS011;3376;42.664;23.346;2023-12-14T13:02:21;0.20;;;0.20;;
6679;SDS011;3376;42.664;23.346;2023-12-14T13:04:48;0.80;;;0.60;;
6679;SDS011;3376;42.664;23.346;2023-12-14T13:07:15;0.33;;;0.33;;
6679;SDS011;3376;42.664;23.346;2023-12-14T13:09:45;0.43;;;0.40;;
6679;SDS011;3376;42.664;23.346;2023-12-14T13:12:12;0.47;;;0.47;;
6679;SDS011;3376;42.664;23.346;2023-12-14T13:14:39;0.50;;;0.40;;
6679;SDS011;3376;42.664;23.346;2023-12-14T13:17:06;0.50;;;0.50;;
6679;SDS011;3376;42.664;23.346;2023-12-14T13:19:33;0.67;;;0.67;;
6679;SDS011;3376;42.664;23.346;2023-12-14T13:22:00;0.67;;;0.60;;
6679;SDS011;3376;42.664;23.346;2023-12-14T13:24:27;1.93;;;1.80;;
6679;SDS011;3376;42.664;23.346;2023-12-14T13:26:56;0.33;;;0.33;;
6679;SDS011;3376;42.664;23.346;2023-12-14T13:29:23;1.67;;;0.60;;
6679;SDS011;3376;42.664;23.346;2023-12-14T13:31:50;0.33;;;0.33;;
6679;SDS011;3376;42.664;23.346;2023-12-14T13:34:17;0.37;;;0.37;;
6679;SDS011;3376;42.664;23.346;2023-12-14T13:36:44;0.97;;;0.97;;
6679;SDS011;3376;42.664;23.346;2023-12-14T13:39:11;0.30;;;0.30;;
6679;SDS011;3376;42.664;23.346;2023-12-14T13:41:38;1.40;;;0.40;;
6679;SDS011;3376;42.664;23.346;2023-12-14T13:44:06;0.50;;;0.50;;
6679;SDS011;3376;42.664;23.346;2023-12-14T13:46:33;0.40;;;0.30;;
6679;SDS011;3376;42.664;23.346;2023-12-14T13:49:00;0.30;;;0.30;;
6679;SDS011;3376;42.664;23.346;2023-12-14T13:51:27;0.40;;;0.40;;
6679;SDS011;3376;42.664;23.346;2023-12-14T13:53:53;0.60;;;0.60;;
6679;SDS011;3376;42.664;23.346;2023-12-14T13:56:20;1.50;;;0.63;;
6679;SDS011;3376;42.664;23.346;2023-12-14T13:58:48;1.17;;;0.70;;
6679;SDS011;3376;42.664;23.346;2023-12-14T14:01:16;0.63;;;0.63;;
6679;SDS011;3376;42.664;23.346;2023-12-14T14:03:44;0.50;;;0.50;;
6679;SDS011;3376;42.664;23.346;2023-12-14T14:06:12;0.40;;;0.40;;
6679;SDS011;3376;42.664;23.346;2023-12-14T14:08:39;1.80;;;0.60;;
6679;SDS011;3376;42.664;23.346;2023-12-14T14:11:06;1.37;;;0.50;;
6679;SDS011;3376;42.664;23.346;2023-12-14T14:13:33;2.17;;;0.70;;
6679;SDS011;3376;42.664;23.346;2023-12-14T14:16:00;0.90;;;0.90;;
6679;SDS011;3376;42.664;23.346;2023-12-14T14:18:29;1.43;;;0.70;;
6679;SDS011;3376;42.664;23.346;2023-12-14T14:20:55;0.87;;;0.73;;
6679;SDS011;3376;42.664;23.346;2023-12-14T14:23:23;2.60;;;0.90;;
6679;SDS011;3376;42.664;23.346;2023-12-14T14:25:51;1.80;;;0.70;;
6679;SDS011;3376;42.664;23.346;2023-12-14T14:28:19;2.73;;;0.60;;
6679;SDS011;3376;42.664;23.346;2023-12-14T14:30:47;2.33;;;0.80;;
6679;SDS011;3376;42.664;23.346;2023-12-14T14:33:14;0.40;;;0.40;;
6679;SDS011;3376;42.664;23.346;2023-12-14T14:35:45;0.73;;;0.60;;
6679;SDS011;3376;42.664;23.346;2023-12-14T14:38:12;0.63;;;0.63;;
6679;SDS011;3376;42.664;23.346;2023-12-14T14:40:39;0.70;;;0.70;;
6679;SDS011;3376;42.664;23.346;2023-12-14T14:43:07;0.50;;;0.50;;
6679;SDS011;3376;42.664;23.346;2023-12-14T14:45:34;1.47;;;0.60;;
6679;SDS011;3376;42.664;23.346;2023-12-14T14:48:03;2.37;;;0.50;;
6679;SDS011;3376;42.664;23.346;2023-12-14T14:50:33;1.20;;;0.80;;
6679;SDS011;3376;42.664;23.346;2023-12-14T14:53:02;0.40;;;0.40;;
6679;SDS011;3376;42.664;23.346;2023-12-14T14:55:29;4.37;;;0.80;;
6679;SDS011;3376;42.664;23.346;2023-12-14T14:57:56;0.70;;;0.70;;
6679;SDS011;3376;42.664;23.346;2023-12-14T15:00:23;3.57;;;2.40;;